Shokan, NY (12481)

11:36 AM EST on December 22, 2014 (GMT -0500)
Bag End | Change Station
CLOSE
Current Station
Personal Weather Station
Location: Boiceville, NY
Elevation: 1096 ft
Nearby Weather Stations

Elev 1096 ft 42.00 °N, 74.25 °W | Updated 1 second ago

Overcast
Overcast
34.0 °F
Feels Like 34 °F
N
0.0
Wind Variable Wind from NW
Gusts 0.0 mph

Today
High -- | Low -- °F
--% Chance of Precip.
Yesterday
High -- | Low -- °F
Precip. -- in
7:21 AM 4:29 PM
New Moon, 1% visible
Pressure 30.33 in
Visibility 7.0 miles
Clouds Overcast 900 ft
Windchill 34 °F
Dew Point 34 °F
Humidity 99%
Rainfall 0.00 in
Snow Depth Not available.
UV 1 out of 12
Pollen .10 out of 12
Air Quality Not available.
Flu Activity Not available.
METAR KPOU 221553Z 35003KT 7SM OVC009 01/M02 A3033 RMK AO2 SLP271 T00111017

More Conditions Fewer Conditions

Pressure 30.33 in
Visibility 7.0 miles
Clouds Overcast 900 ft
Windchill 34 °F
Dew Point 34 °F
Humidity 99%
Rainfall 0.00 in
Snow Depth Not available.
UV 1 out of 12
Pollen .10 out of 12
Air Quality Not available.
Flu Activity Not available.
METAR KPOU 221553Z 35003KT 7SM OVC009 01/M02 A3033 RMK AO2 SLP271 T00111017

More Conditions Fewer Conditions

10-Day Weather Forecast

Almanac

Astronomy

Dec. 22, 2014 Rise Set
Actual Time
Civil Twilight
Nautical Twilight
Astronomical Twilight
Moon
Length of Visible Light
Length of Day
Tomorrow will be .
, % of the Moon is Illuminated

Today's Extremes

State Highs State Lows

Community

WunderPhotos

Upload Photos

1,779,636 photos uploaded!

WunderBlogs® & News

Nearby

Air Quality

  Air Quality AQ Index Pollutant
Not available.

Snow Depth

Station Depth Elevation

Earthquake Activity

City Distance Mag. Time & Date
Minimum magnitude displayed is 2.5.

Coastal Water Temperatures

Place Temperature

Nearby Weather Stations